sensor_id;sensor_type;location;lat;lon;timestamp;P1;durP1;ratioP1;P2;durP2;ratioP2
51616;SDS011;37697;52.588;13.394;2024-01-07T00:01:24;8.90;;;4.10;;
51616;SDS011;37697;52.588;13.394;2024-01-07T00:06:50;8.40;;;3.50;;
51616;SDS011;37697;52.588;13.394;2024-01-07T00:12:09;9.20;;;3.70;;
51616;SDS011;37697;52.588;13.394;2024-01-07T00:17:35;8.90;;;3.40;;
51616;SDS011;37697;52.588;13.394;2024-01-07T00:23:01;9.10;;;3.70;;
51616;SDS011;37697;52.588;13.394;2024-01-07T00:28:26;7.30;;;2.80;;
51616;SDS011;37697;52.588;13.394;2024-01-07T00:33:52;6.50;;;3.20;;
51616;SDS011;37697;52.588;13.394;2024-01-07T00:39:18;7.30;;;3.00;;
51616;SDS011;37697;52.588;13.394;2024-01-07T00:44:45;5.30;;;2.60;;
51616;SDS011;37697;52.588;13.394;2024-01-07T00:50:10;7.30;;;2.90;;
51616;SDS011;37697;52.588;13.394;2024-01-07T00:55:36;7.00;;;2.30;;
51616;SDS011;37697;52.588;13.394;2024-01-07T01:01:02;7.00;;;3.40;;
51616;SDS011;37697;52.588;13.394;2024-01-07T01:06:28;4.00;;;2.10;;
51616;SDS011;37697;52.588;13.394;2024-01-07T01:11:54;4.80;;;2.30;;
51616;SDS011;37697;52.588;13.394;2024-01-07T01:17:19;6.30;;;2.70;;
51616;SDS011;37697;52.588;13.394;2024-01-07T01:22:45;4.90;;;2.40;;
51616;SDS011;37697;52.588;13.394;2024-01-07T01:28:11;5.10;;;2.50;;
51616;SDS011;37697;52.588;13.394;2024-01-07T01:33:37;7.10;;;2.80;;
51616;SDS011;37697;52.588;13.394;2024-01-07T01:39:02;6.40;;;2.20;;
51616;SDS011;37697;52.588;13.394;2024-01-07T01:44:28;6.20;;;2.70;;
51616;SDS011;37697;52.588;13.394;2024-01-07T01:49:54;5.60;;;2.50;;
51616;SDS011;37697;52.588;13.394;2024-01-07T01:55:19;6.90;;;3.30;;
51616;SDS011;37697;52.588;13.394;2024-01-07T02:00:44;6.30;;;2.70;;
51616;SDS011;37697;52.588;13.394;2024-01-07T02:06:09;5.80;;;2.70;;
51616;SDS011;37697;52.588;13.394;2024-01-07T02:11:36;6.00;;;2.40;;
51616;SDS011;37697;52.588;13.394;2024-01-07T02:17:01;5.40;;;2.80;;
51616;SDS011;37697;52.588;13.394;2024-01-07T02:22:27;5.50;;;2.40;;
51616;SDS011;37697;52.588;13.394;2024-01-07T02:27:53;5.90;;;2.90;;
51616;SDS011;37697;52.588;13.394;2024-01-07T02:33:19;5.30;;;2.50;;
51616;SDS011;37697;52.588;13.394;2024-01-07T02:38:37;4.10;;;2.30;;
51616;SDS011;37697;52.588;13.394;2024-01-07T02:44:03;5.90;;;2.20;;
51616;SDS011;37697;52.588;13.394;2024-01-07T02:49:29;5.40;;;2.30;;
51616;SDS011;37697;52.588;13.394;2024-01-07T02:54:55;6.20;;;2.70;;
51616;SDS011;37697;52.588;13.394;2024-01-07T03:00:20;5.50;;;2.60;;
51616;SDS011;37697;52.588;13.394;2024-01-07T03:05:46;4.60;;;2.10;;
51616;SDS011;37697;52.588;13.394;2024-01-07T03:11:12;3.70;;;1.90;;
51616;SDS011;37697;52.588;13.394;2024-01-07T03:16:38;5.00;;;2.00;;
51616;SDS011;37697;52.588;13.394;2024-01-07T03:22:04;4.60;;;2.30;;
51616;SDS011;37697;52.588;13.394;2024-01-07T03:27:30;4.10;;;2.10;;
51616;SDS011;37697;52.588;13.394;2024-01-07T03:32:56;4.30;;;2.20;;
51616;SDS011;37697;52.588;13.394;2024-01-07T03:38:22;4.70;;;2.00;;
51616;SDS011;37697;52.588;13.394;2024-01-07T03:43:48;5.10;;;2.30;;
51616;SDS011;37697;52.588;13.394;2024-01-07T03:49:14;5.10;;;2.30;;
51616;SDS011;37697;52.588;13.394;2024-01-07T03:54:39;5.30;;;2.40;;
51616;SDS011;37697;52.588;13.394;2024-01-07T04:00:06;5.30;;;1.90;;
51616;SDS011;37697;52.588;13.394;2024-01-07T04:05:33;5.60;;;2.20;;
51616;SDS011;37697;52.588;13.394;2024-01-07T04:11:00;4.80;;;2.20;;
51616;SDS011;37697;52.588;13.394;2024-01-07T04:16:27;5.50;;;2.40;;
51616;SDS011;37697;52.588;13.394;2024-01-07T04:21:52;5.40;;;2.00;;
51616;SDS011;37697;52.588;13.394;2024-01-07T04:27:18;4.00;;;2.00;;
51616;SDS011;37697;52.588;13.394;2024-01-07T04:32:36;6.30;;;2.70;;
51616;SDS011;37697;52.588;13.394;2024-01-07T04:38:02;4.60;;;2.40;;
51616;SDS011;37697;52.588;13.394;2024-01-07T04:43:28;4.70;;;2.20;;
51616;SDS011;37697;52.588;13.394;2024-01-07T04:48:53;3.60;;;1.80;;
51616;SDS011;37697;52.588;13.394;2024-01-07T04:54:19;3.40;;;2.00;;
51616;SDS011;37697;52.588;13.394;2024-01-07T04:59:45;5.30;;;2.10;;
51616;SDS011;37697;52.588;13.394;2024-01-07T05:05:12;5.10;;;2.40;;
51616;SDS011;37697;52.588;13.394;2024-01-07T05:10:38;4.10;;;2.10;;
51616;SDS011;37697;52.588;13.394;2024-01-07T05:16:04;5.40;;;2.70;;
51616;SDS011;37697;52.588;13.394;2024-01-07T05:21:30;4.80;;;2.60;;
51616;SDS011;37697;52.588;13.394;2024-01-07T05:26:56;3.30;;;1.90;;
51616;SDS011;37697;52.588;13.394;2024-01-07T05:32:22;6.40;;;2.30;;
51616;SDS011;37697;52.588;13.394;2024-01-07T05:37:47;5.60;;;2.50;;
51616;SDS011;37697;52.588;13.394;2024-01-07T05:43:13;8.20;;;2.70;;
51616;SDS011;37697;52.588;13.394;2024-01-07T05:48:42;5.50;;;2.30;;
51616;SDS011;37697;52.588;13.394;2024-01-07T05:54:10;5.00;;;2.20;;
51616;SDS011;37697;52.588;13.394;2024-01-07T05:59:36;6.00;;;2.30;;
51616;SDS011;37697;52.588;13.394;2024-01-07T06:05:03;4.60;;;2.40;;
51616;SDS011;37697;52.588;13.394;2024-01-07T06:10:29;7.70;;;2.80;;
51616;SDS011;37697;52.588;13.394;2024-01-07T06:15:55;5.00;;;2.30;;
51616;SDS011;37697;52.588;13.394;2024-01-07T06:21:20;5.60;;;2.50;;
51616;SDS011;37697;52.588;13.394;2024-01-07T06:26:46;6.80;;;2.70;;
51616;SDS011;37697;52.588;13.394;2024-01-07T06:32:12;6.50;;;2.80;;
51616;SDS011;37697;52.588;13.394;2024-01-07T06:37:38;6.30;;;2.80;;
51616;SDS011;37697;52.588;13.394;2024-01-07T06:42:56;7.80;;;3.10;;
51616;SDS011;37697;52.588;13.394;2024-01-07T06:48:22;6.30;;;2.80;;
51616;SDS011;37697;52.588;13.394;2024-01-07T06:53:53;6.40;;;3.20;;
51616;SDS011;37697;52.588;13.394;2024-01-07T06:59:20;6.60;;;2.80;;
51616;SDS011;37697;52.588;13.394;2024-01-07T07:04:46;6.10;;;2.90;;
51616;SDS011;37697;52.588;13.394;2024-01-07T07:10:12;6.60;;;2.50;;
51616;SDS011;37697;52.588;13.394;2024-01-07T07:15:38;5.80;;;2.40;;
51616;SDS011;37697;52.588;13.394;2024-01-07T07:21:04;6.10;;;2.70;;
51616;SDS011;37697;52.588;13.394;2024-01-07T07:26:30;5.60;;;2.70;;
51616;SDS011;37697;52.588;13.394;2024-01-07T07:31:56;5.80;;;2.60;;
51616;SDS011;37697;52.588;13.394;2024-01-07T07:37:12;6.60;;;2.60;;
51616;SDS011;37697;52.588;13.394;2024-01-07T07:42:38;6.80;;;3.10;;
51616;SDS011;37697;52.588;13.394;2024-01-07T07:48:07;5.80;;;2.70;;
51616;SDS011;37697;52.588;13.394;2024-01-07T07:53:34;4.60;;;2.40;;
51616;SDS011;37697;52.588;13.394;2024-01-07T07:59:03;5.60;;;2.70;;
51616;SDS011;37697;52.588;13.394;2024-01-07T08:04:29;4.50;;;2.50;;
51616;SDS011;37697;52.588;13.394;2024-01-07T08:09:54;6.20;;;2.70;;
51616;SDS011;37697;52.588;13.394;2024-01-07T08:15:20;6.50;;;2.80;;
51616;SDS011;37697;52.588;13.394;2024-01-07T08:20:46;5.40;;;3.00;;
51616;SDS011;37697;52.588;13.394;2024-01-07T08:26:12;6.80;;;3.20;;
51616;SDS011;37697;52.588;13.394;2024-01-07T08:31:41;7.80;;;3.40;;
51616;SDS011;37697;52.588;13.394;2024-01-07T08:37:08;8.30;;;4.00;;
51616;SDS011;37697;52.588;13.394;2024-01-07T08:42:34;9.10;;;3.80;;
51616;SDS011;37697;52.588;13.394;2024-01-07T08:48:00;6.50;;;4.20;;
51616;SDS011;37697;52.588;13.394;2024-01-07T08:53:26;9.10;;;4.60;;
51616;SDS011;37697;52.588;13.394;2024-01-07T08:58:52;6.90;;;3.70;;
51616;SDS011;37697;52.588;13.394;2024-01-07T09:04:12;7.80;;;4.20;;
51616;SDS011;37697;52.588;13.394;2024-01-07T09:09:38;7.70;;;3.80;;
51616;SDS011;37697;52.588;13.394;2024-01-07T09:15:02;6.80;;;3.50;;
51616;SDS011;37697;52.588;13.394;2024-01-07T09:20:30;6.40;;;3.50;;
51616;SDS011;37697;52.588;13.394;2024-01-07T09:25:55;5.70;;;3.40;;
51616;SDS011;37697;52.588;13.394;2024-01-07T09:31:21;7.30;;;3.60;;
51616;SDS011;37697;52.588;13.394;2024-01-07T09:36:47;8.50;;;3.70;;
51616;SDS011;37697;52.588;13.394;2024-01-07T09:42:13;8.80;;;4.10;;
51616;SDS011;37697;52.588;13.394;2024-01-07T09:47:41;9.60;;;4.40;;
51616;SDS011;37697;52.588;13.394;2024-01-07T09:53:08;9.20;;;4.30;;
51616;SDS011;37697;52.588;13.394;2024-01-07T09:58:31;7.70;;;3.80;;
51616;SDS011;37697;52.588;13.394;2024-01-07T10:03:57;8.60;;;4.50;;
51616;SDS011;37697;52.588;13.394;2024-01-07T10:09:24;8.30;;;4.40;;
51616;SDS011;37697;52.588;13.394;2024-01-07T10:14:52;7.80;;;4.20;;
51616;SDS011;37697;52.588;13.394;2024-01-07T10:20:18;6.40;;;3.70;;
51616;SDS011;37697;52.588;13.394;2024-01-07T10:25:46;7.00;;;4.20;;
51616;SDS011;37697;52.588;13.394;2024-01-07T10:31:26;6.70;;;4.20;;
51616;SDS011;37697;52.588;13.394;2024-01-07T10:36:52;8.30;;;4.40;;
51616;SDS011;37697;52.588;13.394;2024-01-07T10:42:17;6.50;;;4.20;;
51616;SDS011;37697;52.588;13.394;2024-01-07T10:47:43;8.90;;;4.50;;
51616;SDS011;37697;52.588;13.394;2024-01-07T10:53:17;7.70;;;3.90;;
51616;SDS011;37697;52.588;13.394;2024-01-07T10:58:45;7.30;;;4.10;;
51616;SDS011;37697;52.588;13.394;2024-01-07T11:04:14;8.10;;;3.90;;
51616;SDS011;37697;52.588;13.394;2024-01-07T11:09:50;7.50;;;3.90;;
51616;SDS011;37697;52.588;13.394;2024-01-07T11:21:21;10.20;;;4.60;;
51616;SDS011;37697;52.588;13.394;2024-01-07T11:26:48;7.80;;;4.00;;
51616;SDS011;37697;52.588;13.394;2024-01-07T11:32:14;6.80;;;3.80;;
51616;SDS011;37697;52.588;13.394;2024-01-07T11:37:42;7.20;;;3.60;;
51616;SDS011;37697;52.588;13.394;2024-01-07T11:43:08;6.80;;;3.70;;
51616;SDS011;37697;52.588;13.394;2024-01-07T11:48:34;6.50;;;3.40;;
51616;SDS011;37697;52.588;13.394;2024-01-07T11:54:01;5.70;;;3.60;;
51616;SDS011;37697;52.588;13.394;2024-01-07T11:59:27;6.10;;;3.60;;
51616;SDS011;37697;52.588;13.394;2024-01-07T12:04:54;5.40;;;3.10;;
51616;SDS011;37697;52.588;13.394;2024-01-07T12:10:20;5.50;;;3.00;;
51616;SDS011;37697;52.588;13.394;2024-01-07T12:15:46;5.80;;;3.10;;
51616;SDS011;37697;52.588;13.394;2024-01-07T12:21:14;6.70;;;2.80;;
51616;SDS011;37697;52.588;13.394;2024-01-07T12:26:44;5.30;;;2.70;;
51616;SDS011;37697;52.588;13.394;2024-01-07T12:32:10;5.50;;;3.20;;
51616;SDS011;37697;52.588;13.394;2024-01-07T12:37:36;5.10;;;2.90;;
51616;SDS011;37697;52.588;13.394;2024-01-07T12:43:02;5.70;;;3.30;;
51616;SDS011;37697;52.588;13.394;2024-01-07T12:48:28;4.60;;;2.70;;
51616;SDS011;37697;52.588;13.394;2024-01-07T12:53:47;5.30;;;3.40;;
51616;SDS011;37697;52.588;13.394;2024-01-07T12:59:14;6.10;;;3.10;;
51616;SDS011;37697;52.588;13.394;2024-01-07T13:04:40;5.40;;;3.30;;
51616;SDS011;37697;52.588;13.394;2024-01-07T13:10:07;6.90;;;3.70;;
51616;SDS011;37697;52.588;13.394;2024-01-07T13:15:45;5.70;;;3.30;;
51616;SDS011;37697;52.588;13.394;2024-01-07T13:21:10;6.50;;;4.30;;
51616;SDS011;37697;52.588;13.394;2024-01-07T13:26:40;7.00;;;3.70;;
51616;SDS011;37697;52.588;13.394;2024-01-07T13:32:06;7.10;;;3.10;;
51616;SDS011;37697;52.588;13.394;2024-01-07T13:37:32;6.20;;;3.20;;
51616;SDS011;37697;52.588;13.394;2024-01-07T13:42:58;5.90;;;2.90;;
51616;SDS011;37697;52.588;13.394;2024-01-07T13:48:19;3.70;;;1.90;;
51616;SDS011;37697;52.588;13.394;2024-01-07T13:53:45;4.50;;;2.40;;
51616;SDS011;37697;52.588;13.394;2024-01-07T13:59:11;3.50;;;2.10;;
51616;SDS011;37697;52.588;13.394;2024-01-07T14:04:37;9.20;;;3.50;;
51616;SDS011;37697;52.588;13.394;2024-01-07T14:10:03;8.90;;;3.90;;
51616;SDS011;37697;52.588;13.394;2024-01-07T14:15:30;5.30;;;2.90;;
51616;SDS011;37697;52.588;13.394;2024-01-07T14:20:57;5.30;;;3.00;;
51616;SDS011;37697;52.588;13.394;2024-01-07T14:26:22;6.70;;;3.00;;
51616;SDS011;37697;52.588;13.394;2024-01-07T14:31:48;5.10;;;2.70;;
51616;SDS011;37697;52.588;13.394;2024-01-07T14:37:13;4.20;;;2.10;;
51616;SDS011;37697;52.588;13.394;2024-01-07T14:42:38;6.50;;;2.90;;
51616;SDS011;37697;52.588;13.394;2024-01-07T14:48:05;4.80;;;2.40;;
51616;SDS011;37697;52.588;13.394;2024-01-07T14:53:31;5.50;;;2.90;;
51616;SDS011;37697;52.588;13.394;2024-01-07T14:58:57;4.70;;;2.70;;
51616;SDS011;37697;52.588;13.394;2024-01-07T15:04:22;3.90;;;2.30;;
51616;SDS011;37697;52.588;13.394;2024-01-07T15:09:48;4.30;;;2.60;;
51616;SDS011;37697;52.588;13.394;2024-01-07T15:15:15;5.60;;;2.40;;
51616;SDS011;37697;52.588;13.394;2024-01-07T15:20:41;6.90;;;3.20;;
51616;SDS011;37697;52.588;13.394;2024-01-07T15:26:07;5.50;;;2.60;;
51616;SDS011;37697;52.588;13.394;2024-01-07T15:31:33;6.10;;;3.50;;
51616;SDS011;37697;52.588;13.394;2024-01-07T15:36:59;4.70;;;2.80;;
51616;SDS011;37697;52.588;13.394;2024-01-07T15:42:26;5.00;;;3.10;;
51616;SDS011;37697;52.588;13.394;2024-01-07T15:47:53;6.90;;;3.50;;
51616;SDS011;37697;52.588;13.394;2024-01-07T15:53:19;5.30;;;3.10;;
51616;SDS011;37697;52.588;13.394;2024-01-07T15:58:45;6.20;;;3.20;;
51616;SDS011;37697;52.588;13.394;2024-01-07T16:04:10;5.10;;;3.20;;
51616;SDS011;37697;52.588;13.394;2024-01-07T16:09:36;4.00;;;2.60;;
51616;SDS011;37697;52.588;13.394;2024-01-07T16:15:04;5.90;;;3.50;;
51616;SDS011;37697;52.588;13.394;2024-01-07T16:20:30;7.00;;;4.10;;
51616;SDS011;37697;52.588;13.394;2024-01-07T16:25:56;8.20;;;4.10;;
51616;SDS011;37697;52.588;13.394;2024-01-07T16:31:23;7.90;;;4.80;;
51616;SDS011;37697;52.588;13.394;2024-01-07T16:36:48;10.80;;;5.30;;
51616;SDS011;37697;52.588;13.394;2024-01-07T16:42:15;6.70;;;4.10;;
51616;SDS011;37697;52.588;13.394;2024-01-07T16:47:41;8.70;;;4.00;;
51616;SDS011;37697;52.588;13.394;2024-01-07T16:53:07;7.60;;;4.50;;
51616;SDS011;37697;52.588;13.394;2024-01-07T16:58:32;9.60;;;4.70;;
51616;SDS011;37697;52.588;13.394;2024-01-07T17:03:58;8.10;;;4.60;;
51616;SDS011;37697;52.588;13.394;2024-01-07T17:09:24;8.90;;;5.00;;
51616;SDS011;37697;52.588;13.394;2024-01-07T17:14:50;8.30;;;4.20;;
51616;SDS011;37697;52.588;13.394;2024-01-07T17:20:16;11.30;;;5.60;;
51616;SDS011;37697;52.588;13.394;2024-01-07T17:25:41;9.60;;;5.20;;
51616;SDS011;37697;52.588;13.394;2024-01-07T17:31:07;11.40;;;5.60;;
51616;SDS011;37697;52.588;13.394;2024-01-07T17:36:24;10.30;;;5.60;;
51616;SDS011;37697;52.588;13.394;2024-01-07T17:41:49;11.80;;;5.30;;
51616;SDS011;37697;52.588;13.394;2024-01-07T17:47:08;11.30;;;6.10;;
51616;SDS011;37697;52.588;13.394;2024-01-07T17:52:26;8.80;;;5.50;;
51616;SDS011;37697;52.588;13.394;2024-01-07T17:57:52;8.40;;;4.40;;
51616;SDS011;37697;52.588;13.394;2024-01-07T18:03:18;9.50;;;5.00;;
51616;SDS011;37697;52.588;13.394;2024-01-07T18:08:43;10.70;;;4.90;;
51616;SDS011;37697;52.588;13.394;2024-01-07T18:14:09;6.20;;;3.90;;
51616;SDS011;37697;52.588;13.394;2024-01-07T18:19:28;5.80;;;3.70;;
51616;SDS011;37697;52.588;13.394;2024-01-07T18:24:54;6.30;;;3.80;;
51616;SDS011;37697;52.588;13.394;2024-01-07T18:30:19;6.30;;;3.80;;
51616;SDS011;37697;52.588;13.394;2024-01-07T18:35:45;9.60;;;5.80;;
51616;SDS011;37697;52.588;13.394;2024-01-07T18:41:16;8.00;;;4.50;;
51616;SDS011;37697;52.588;13.394;2024-01-07T18:46:43;7.90;;;5.30;;
51616;SDS011;37697;52.588;13.394;2024-01-07T18:52:09;12.20;;;6.90;;
51616;SDS011;37697;52.588;13.394;2024-01-07T18:57:35;18.50;;;12.00;;
51616;SDS011;37697;52.588;13.394;2024-01-07T19:03:01;10.00;;;5.00;;
51616;SDS011;37697;52.588;13.394;2024-01-07T19:08:27;8.10;;;4.20;;
51616;SDS011;37697;52.588;13.394;2024-01-07T19:13:33;7.70;;;4.00;;
51616;SDS011;37697;52.588;13.394;2024-01-07T19:18:59;7.20;;;3.90;;
51616;SDS011;37697;52.588;13.394;2024-01-07T19:24:24;7.60;;;3.90;;
51616;SDS011;37697;52.588;13.394;2024-01-07T19:29:50;9.00;;;4.50;;
51616;SDS011;37697;52.588;13.394;2024-01-07T19:35:16;8.60;;;4.50;;
51616;SDS011;37697;52.588;13.394;2024-01-07T19:40:42;8.80;;;4.50;;
51616;SDS011;37697;52.588;13.394;2024-01-07T19:46:06;8.10;;;4.30;;
51616;SDS011;37697;52.588;13.394;2024-01-07T19:51:27;8.00;;;4.50;;
51616;SDS011;37697;52.588;13.394;2024-01-07T19:56:54;11.30;;;5.20;;
51616;SDS011;37697;52.588;13.394;2024-01-07T20:02:20;7.90;;;4.50;;
51616;SDS011;37697;52.588;13.394;2024-01-07T20:07:45;10.90;;;5.00;;
51616;SDS011;37697;52.588;13.394;2024-01-07T20:13:11;6.70;;;4.30;;
51616;SDS011;37697;52.588;13.394;2024-01-07T20:18:37;7.70;;;4.60;;
51616;SDS011;37697;52.588;13.394;2024-01-07T20:24:02;8.40;;;4.20;;
51616;SDS011;37697;52.588;13.394;2024-01-07T20:29:29;7.20;;;4.10;;
51616;SDS011;37697;52.588;13.394;2024-01-07T20:34:53;8.90;;;3.90;;
51616;SDS011;37697;52.588;13.394;2024-01-07T20:40:09;9.20;;;4.30;;
51616;SDS011;37697;52.588;13.394;2024-01-07T20:45:28;8.30;;;3.70;;
51616;SDS011;37697;52.588;13.394;2024-01-07T20:50:54;8.40;;;4.30;;
51616;SDS011;37697;52.588;13.394;2024-01-07T20:56:20;9.60;;;3.90;;
51616;SDS011;37697;52.588;13.394;2024-01-07T21:01:46;14.20;;;5.30;;
51616;SDS011;37697;52.588;13.394;2024-01-07T21:07:11;10.50;;;4.60;;
51616;SDS011;37697;52.588;13.394;2024-01-07T21:12:41;10.20;;;5.50;;
51616;SDS011;37697;52.588;13.394;2024-01-07T21:18:07;11.80;;;4.50;;
51616;SDS011;37697;52.588;13.394;2024-01-07T21:23:33;11.30;;;5.50;;
51616;SDS011;37697;52.588;13.394;2024-01-07T21:28:58;11.00;;;5.00;;
51616;SDS011;37697;52.588;13.394;2024-01-07T21:34:24;12.40;;;5.30;;
51616;SDS011;37697;52.588;13.394;2024-01-07T21:39:42;12.30;;;5.90;;
51616;SDS011;37697;52.588;13.394;2024-01-07T21:45:09;10.30;;;5.80;;
51616;SDS011;37697;52.588;13.394;2024-01-07T21:50:35;14.00;;;6.00;;
51616;SDS011;37697;52.588;13.394;2024-01-07T21:56:00;12.00;;;5.70;;
51616;SDS011;37697;52.588;13.394;2024-01-07T22:01:26;12.60;;;5.70;;
51616;SDS011;37697;52.588;13.394;2024-01-07T22:06:52;11.10;;;5.60;;
51616;SDS011;37697;52.588;13.394;2024-01-07T22:12:18;10.70;;;4.80;;
51616;SDS011;37697;52.588;13.394;2024-01-07T22:17:43;11.20;;;5.50;;
51616;SDS011;37697;52.588;13.394;2024-01-07T22:23:09;13.60;;;6.40;;
51616;SDS011;37697;52.588;13.394;2024-01-07T22:28:35;13.70;;;5.90;;
51616;SDS011;37697;52.588;13.394;2024-01-07T22:34:01;14.10;;;6.40;;
51616;SDS011;37697;52.588;13.394;2024-01-07T22:39:19;11.80;;;5.60;;
51616;SDS011;37697;52.588;13.394;2024-01-07T22:44:45;15.10;;;7.20;;
51616;SDS011;37697;52.588;13.394;2024-01-07T22:50:10;12.20;;;6.30;;
51616;SDS011;37697;52.588;13.394;2024-01-07T22:55:36;10.40;;;5.40;;
51616;SDS011;37697;52.588;13.394;2024-01-07T23:01:02;14.20;;;6.10;;
51616;SDS011;37697;52.588;13.394;2024-01-07T23:06:28;12.60;;;6.20;;
51616;SDS011;37697;52.588;13.394;2024-01-07T23:11:54;12.70;;;6.40;;
51616;SDS011;37697;52.588;13.394;2024-01-07T23:17:20;11.10;;;6.40;;
51616;SDS011;37697;52.588;13.394;2024-01-07T23:22:46;13.50;;;5.80;;
51616;SDS011;37697;52.588;13.394;2024-01-07T23:28:11;13.10;;;5.50;;
51616;SDS011;37697;52.588;13.394;2024-01-07T23:33:37;14.60;;;6.10;;
51616;SDS011;37697;52.588;13.394;2024-01-07T23:39:03;12.20;;;6.10;;
51616;SDS011;37697;52.588;13.394;2024-01-07T23:44:29;12.30;;;5.40;;
51616;SDS011;37697;52.588;13.394;2024-01-07T23:49:54;13.40;;;6.20;;
51616;SDS011;37697;52.588;13.394;2024-01-07T23:55:20;11.40;;;5.20;;
